Time;durP1;ratioP1;P1;durP2;ratioP2;P2;SDS_P1;SDS_P2;PMS_P1;PMS_P2;Temp;Humidity;BMP_temperature;BMP_pressure;BME280_temperature;BME280_humidity;BME280_pressure;Samples;Min_cycle;Max_cycle;Signal;HPM_P1;HPM_P2
2021/06/26 00:00:45;;;;;;;;;7.00;7.00;;;;;19.41;68.00;101359.88;4924460;28;45269;-73
2021/06/26 00:03:11;;;;;;;;;7.00;5.00;;;;;19.40;68.14;101362.66;4924360;28;46124;-73
2021/06/26 00:05:36;;;;;;;;;8.00;7.25;;;;;19.40;67.97;101365.38;4924402;28;45213;-73
2021/06/26 00:08:01;;;;;;;;;8.25;7.50;;;;;19.39;67.93;101364.47;4924282;28;45287;-73
2021/06/26 00:10:27;;;;;;;;;7.00;7.00;;;;;19.43;67.87;101365.19;4924259;28;46025;-73
2021/06/26 00:12:52;;;;;;;;;8.25;6.00;;;;;19.40;67.83;101368.09;4924390;28;45230;-73
2021/06/26 00:15:17;;;;;;;;;5.75;5.75;;;;;19.41;68.11;101370.69;4924437;28;45139;-73
2021/06/26 00:17:43;;;;;;;;;7.75;7.50;;;;;19.45;68.29;101379.50;4924377;28;45227;-73
2021/06/26 00:20:09;;;;;;;;;8.00;7.50;;;;;19.46;67.96;101380.38;4924203;28;45288;-73
2021/06/26 00:22:34;;;;;;;;;9.75;7.50;;;;;19.46;68.00;101378.53;4924288;28;45400;-73
2021/06/26 00:24:59;;;;;;;;;6.50;6.00;;;;;19.37;67.98;101361.00;4924023;28;45283;-73
2021/06/26 00:27:25;;;;;;;;;8.75;6.50;;;;;19.46;68.19;101370.41;4924389;28;45480;-73
2021/06/26 00:29:50;;;;;;;;;7.25;7.00;;;;;19.46;68.28;101378.53;4924046;28;45358;-73
2021/06/26 00:32:15;;;;;;;;;9.00;6.75;;;;;19.46;68.35;101375.81;4924189;28;45992;-73
2021/06/26 00:34:41;;;;;;;;;10.75;9.25;;;;;19.44;68.14;101383.16;4924384;28;45310;-73
2021/06/26 00:37:06;;;;;;;;;7.00;7.00;;;;;19.44;68.21;101380.47;4924298;28;45309;-73
2021/06/26 00:39:31;;;;;;;;;7.00;7.00;;;;;19.45;68.50;101382.22;4923794;28;45398;-73
2021/06/26 00:41:57;;;;;;;;;8.50;7.00;;;;;19.43;68.37;101384.16;4923847;28;46326;-73
2021/06/26 00:44:26;;;;;;;;;6.50;6.50;;;;;19.43;68.44;101376.88;4923888;28;45345;-73
2021/06/26 00:46:52;;;;;;;;;8.75;6.75;;;;;19.42;68.57;101375.13;4925117;28;45223;-73
2021/06/26 00:49:17;;;;;;;;;6.50;6.50;;;;;19.40;68.68;101371.66;4926839;28;45496;-73
2021/06/26 00:51:42;;;;;;;;;7.50;6.75;;;;;19.38;68.31;101361.91;4923731;28;46108;-73
2021/06/26 00:54:08;;;;;;;;;6.75;6.75;;;;;19.34;68.69;101355.75;4923643;28;45329;-73
2021/06/26 00:56:34;;;;;;;;;7.75;6.00;;;;;19.32;68.56;101344.16;4923895;28;45297;-73
2021/06/26 00:58:59;;;;;;;;;7.50;6.50;;;;;19.34;68.52;101338.66;4923586;28;45535;-73
2021/06/26 01:01:26;;;;;;;;;5.25;5.25;;;;;19.35;68.65;101340.41;4923549;28;46067;-73
2021/06/26 01:03:51;;;;;;;;;7.25;7.25;;;;;19.35;68.64;101341.28;4923465;28;45410;-73
2021/06/26 01:06:17;;;;;;;;;7.00;6.25;;;;;19.37;68.83;101341.19;4923874;28;45468;-73
2021/06/26 01:08:43;;;;;;;;;10.75;9.00;;;;;19.39;68.98;101344.66;4923237;28;45518;-73
2021/06/26 01:11:09;;;;;;;;;7.25;7.00;;;;;19.40;68.82;101335.59;4923817;28;46224;-73
2021/06/26 01:13:35;;;;;;;;;7.75;6.25;;;;;19.39;69.00;101337.41;4923342;28;45274;-73
2021/06/26 01:16:00;;;;;;;;;8.00;8.00;;;;;19.39;68.83;101333.84;4923796;28;45454;-73
2021/06/26 01:18:25;;;;;;;;;7.25;7.25;;;;;19.38;68.69;101327.56;4922217;28;45632;-73
2021/06/26 01:20:51;;;;;;;;;9.25;8.25;;;;;19.42;68.61;101339.94;4923389;28;46225;-73
2021/06/26 01:23:18;;;;;;;;;11.00;10.75;;;;;19.44;68.76;101343.44;4923121;28;45235;-73
2021/06/26 01:25:43;;;;;;;;;11.25;9.50;;;;;19.46;69.05;101337.91;4923230;28;45410;-73
2021/06/26 01:28:09;;;;;;;;;12.25;12.00;;;;;19.46;69.05;101337.91;4923128;28;45136;-73
2021/06/26 01:30:35;;;;;;;;;15.75;11.50;;;;;19.43;69.08;101332.72;4922929;28;46963;-73
2021/06/26 01:33:02;;;;;;;;;10.00;10.00;;;;;19.44;69.15;101340.75;4923710;28;45597;-73
2021/06/26 01:35:29;;;;;;;;;12.25;11.75;;;;;19.44;69.00;101332.63;4923465;28;45327;-73
2021/06/26 01:37:56;;;;;;;;;10.25;10.25;;;;;19.43;68.87;101333.56;4922929;28;45243;-73
2021/06/26 01:40:25;;;;;;;;;13.50;12.00;;;;;19.42;69.03;101330.97;4922737;28;46249;-73
2021/06/26 01:42:52;;;;;;;;;9.75;9.75;;;;;19.39;69.17;101331.13;4922893;28;45255;-73
2021/06/26 01:45:18;;;;;;;;;14.00;14.00;;;;;19.38;68.90;101324.00;4923316;28;45417;-73
2021/06/26 01:47:56;;;;;;;;;12.75;12.25;;;;;19.38;68.94;101321.28;4927100;28;45257;-73
2021/06/26 01:50:23;;;;;;;;;12.50;9.50;;;;;19.40;68.75;101324.78;4922835;28;46551;-73
2021/06/26 01:52:49;;;;;;;;;12.25;12.25;;;;;19.39;68.81;101326.59;4922788;28;45307;-73
2021/06/26 01:55:16;;;;;;;;;14.50;11.25;;;;;19.40;69.00;101327.47;4922902;28;45400;-73
2021/06/26 01:57:43;;;;;;;;;10.25;9.00;;;;;19.39;68.96;101315.75;4922657;28;45443;-73
2021/06/26 02:00:09;;;;;;;;;13.00;9.75;;;;;19.40;68.89;101316.66;4922647;28;46869;-73
2021/06/26 02:02:34;;;;;;;;;11.25;8.25;;;;;19.39;68.69;101314.91;4910151;28;45240;-73
2021/06/26 02:05:00;;;;;;;;;10.25;10.25;;;;;19.43;68.64;101327.28;4922723;28;45434;-73
2021/06/26 02:07:25;;;;;;;;;13.25;13.25;;;;;19.43;68.97;101321.88;4922883;28;45217;-73
2021/06/26 02:09:50;;;;;;;;;7.75;7.75;;;;;19.43;68.72;101320.03;4922516;28;46024;-73
2021/06/26 02:12:16;;;;;;;;;12.25;10.75;;;;;19.40;69.19;101322.94;4922914;28;45250;-73
2021/06/26 02:14:41;;;;;;;;;11.50;10.75;;;;;19.39;68.79;101317.59;4922734;28;45303;-73
2021/06/26 02:17:07;;;;;;;;;13.25;12.25;;;;;19.37;69.02;101317.69;4922691;28;45530;-73
2021/06/26 02:19:32;;;;;;;;;12.25;11.00;;;;;19.35;69.21;101311.50;4922165;28;46435;-73
2021/06/26 02:21:58;;;;;;;;;11.75;11.75;;;;;19.37;69.06;101316.84;4922744;28;45322;-73
2021/06/26 02:24:23;;;;;;;;;9.75;9.75;;;;;19.38;69.09;101326.72;4922478;28;45296;-73
2021/06/26 02:26:48;;;;;;;;;12.50;12.50;;;;;19.38;69.13;101324.88;4922606;28;45430;-73
2021/06/26 02:29:14;;;;;;;;;13.00;10.25;;;;;19.36;69.01;101320.50;4922131;28;46334;-73
2021/06/26 02:31:39;;;;;;;;;11.25;11.25;;;;;19.38;68.90;101319.44;4922234;28;45387;-73
2021/06/26 02:34:05;;;;;;;;;13.75;12.25;;;;;19.35;68.97;101319.63;4923106;28;45470;-73
2021/06/26 02:36:30;;;;;;;;;12.67;10.33;;;;;19.37;69.11;101327.66;4922178;28;45291;-73
2021/06/26 02:38:55;;;;;;;;;15.50;14.00;;;;;19.36;69.19;101318.69;4922088;28;46140;-73
2021/06/26 02:41:22;;;;;;;;;13.25;13.25;;;;;19.32;68.96;101310.81;4922189;28;45577;-73
2021/06/26 02:43:49;;;;;;;;;11.00;10.50;;;;;19.32;68.98;101311.69;4922461;28;45459;-73
2021/06/26 02:46:15;;;;;;;;;12.25;11.25;;;;;19.31;69.32;101315.38;4922236;28;45284;-73
2021/06/26 02:48:40;;;;;;;;;12.75;12.75;;;;;19.32;68.84;101313.53;4926444;28;46092;-73
2021/06/26 02:51:06;;;;;;;;;11.25;10.00;;;;;19.27;68.88;101311.09;4922013;28;46719;-73
2021/06/26 02:53:31;;;;;;;;;12.50;9.25;;;;;19.28;68.97;101310.16;4922177;28;45228;-73
2021/06/26 02:55:56;;;;;;;;;13.75;11.25;;;;;19.29;69.40;101314.56;4921999;28;45387;-73
2021/06/26 02:58:23;;;;;;;;;13.25;11.75;;;;;19.28;68.96;101314.66;4921907;28;45323;-73
2021/06/26 03:00:48;;;;;;;;;12.25;10.00;;;;;19.27;68.96;101308.38;4922020;28;45421;-73
2021/06/26 03:03:14;;;;;;;;;9.25;7.75;;;;;19.30;68.70;101316.31;4922172;28;45460;-73
2021/06/26 03:05:39;;;;;;;;;10.75;10.75;;;;;19.26;68.76;101306.63;4921905;28;45414;-73
2021/06/26 03:08:05;;;;;;;;;5.75;5.25;;;;;19.25;68.79;101303.06;4921833;28;46158;-73
2021/06/26 03:10:30;;;;;;;;;10.75;10.00;;;;;19.24;68.69;101306.75;4921949;28;45319;-73
2021/06/26 03:12:55;;;;;;;;;8.75;8.75;;;;;19.22;68.70;101302.38;4922099;28;45802;-73
2021/06/26 03:15:21;;;;;;;;;10.50;9.50;;;;;19.21;69.07;101312.34;4921795;28;45343;-73
2021/06/26 03:17:46;;;;;;;;;10.50;9.50;;;;;19.20;69.12;101307.88;4921512;28;45376;-73
2021/06/26 03:20:12;;;;;;;;;8.50;8.00;;;;;19.22;69.23;101310.50;4936509;28;45500;-73
2021/06/26 03:22:38;;;;;;;;;8.00;7.25;;;;;19.18;69.07;101311.66;4922115;28;45343;-73
2021/06/26 03:25:05;;;;;;;;;12.50;12.50;;;;;19.21;69.46;101315.06;4921528;28;45417;-74
2021/06/26 03:27:31;;;;;;;;;9.75;8.75;;;;;19.19;69.26;101316.94;4921779;28;45403;-73
2021/06/26 03:29:56;;;;;;;;;12.50;12.50;;;;;19.23;69.61;101320.38;4921561;28;45439;-73
2021/06/26 03:32:21;;;;;;;;;14.75;12.75;;;;;19.21;69.19;101314.16;4921821;28;45347;-73
2021/06/26 03:34:47;;;;;;;;;10.50;10.50;;;;;19.20;69.51;101316.00;4922200;28;45239;-72
2021/06/26 03:37:12;;;;;;;;;12.00;11.50;;;;;19.20;69.67;101312.44;4921528;28;46289;-73
2021/06/26 03:39:37;;;;;;;;;12.50;10.75;;;;;19.18;69.62;101309.81;4921327;28;45248;-72
2021/06/26 03:42:03;;;;;;;;;12.75;12.50;;;;;19.16;69.55;101314.47;4922987;28;45326;-73
2021/06/26 03:44:29;;;;;;;;;16.00;14.75;;;;;19.15;69.67;101312.69;4924792;28;45564;-72
2021/06/26 03:46:54;;;;;;;;;14.00;13.25;;;;;19.16;70.22;101311.75;4926168;28;45293;-72
2021/06/26 03:49:19;;;;;;;;;13.75;13.00;;;;;19.15;70.07;101304.56;4927599;28;45359;-72
2021/06/26 03:51:45;;;;;;;;;14.75;14.00;;;;;19.17;69.99;101309.91;4924885;28;45318;-72
2021/06/26 03:54:10;;;;;;;;;17.25;15.25;;;;;19.15;69.83;101307.28;4924517;28;45434;-72
2021/06/26 03:56:35;;;;;;;;;17.50;14.50;;;;;19.14;69.89;101308.22;4924596;28;45270;-72
2021/06/26 03:59:02;;;;;;;;;15.00;14.25;;;;;19.13;69.70;101314.63;4924476;28;45378;-72
2021/06/26 04:01:27;;;;;;;;;22.00;17.75;;;;;19.14;69.88;101320.91;4924670;28;45267;-73
2021/06/26 04:03:53;;;;;;;;;10.75;10.50;;;;;19.12;69.99;101312.00;4924347;28;45506;-73
2021/06/26 04:06:18;;;;;;;;;14.00;13.25;;;;;19.08;69.69;101311.31;4924606;28;45384;-73
2021/06/26 04:08:44;;;;;;;;;16.00;16.00;;;;;19.05;70.13;101312.38;4924093;28;46250;-73
2021/06/26 04:11:10;;;;;;;;;15.00;14.50;;;;;19.04;69.68;101307.94;4924879;28;45407;-72
2021/06/26 04:13:35;;;;;;;;;13.25;12.25;;;;;19.04;69.94;101307.94;4924241;28;45335;-72
2021/06/26 04:16:01;;;;;;;;;11.75;11.75;;;;;19.04;70.07;101315.16;4924483;28;46368;-73
2021/06/26 04:18:26;;;;;;;;;12.75;12.75;;;;;19.05;70.15;101314.22;4923944;28;45305;-72
2021/06/26 04:20:52;;;;;;;;;10.00;9.00;;;;;19.04;70.16;101326.88;4924417;28;45432;-72
2021/06/26 04:23:17;;;;;;;;;11.50;11.25;;;;;19.04;70.38;101320.56;4924134;28;45447;-73
2021/06/26 04:25:43;;;;;;;;;15.50;15.25;;;;;19.00;70.35;101319.88;4924145;28;45340;-73
2021/06/26 04:28:10;;;;;;;;;14.00;14.00;;;;;19.02;70.09;101327.91;4924100;28;45264;-72
2021/06/26 04:30:36;;;;;;;;;15.00;15.00;;;;;18.97;70.10;101319.19;4924307;28;45288;-72
2021/06/26 04:33:03;;;;;;;;;12.75;11.00;;;;;18.98;70.39;101316.41;4924663;28;45307;-72
2021/06/26 04:35:29;;;;;;;;;10.25;9.25;;;;;19.00;70.20;101321.72;4924220;28;46146;-73
2021/06/26 04:37:55;;;;;;;;;14.00;11.50;;;;;18.99;70.27;101317.25;4923862;28;45335;-73
2021/06/26 04:40:20;;;;;;;;;8.25;7.50;;;;;18.99;70.00;101322.69;4923917;28;45228;-72
2021/06/26 04:42:46;;;;;;;;;10.50;10.50;;;;;18.98;70.01;101319.09;4923903;28;45564;-73
2021/06/26 04:45:13;;;;;;;;;12.00;12.00;;;;;19.00;70.40;101319.03;4923920;28;46234;-73
2021/06/26 04:47:42;;;;;;;;;13.00;11.75;;;;;18.96;70.17;101318.34;4928173;28;45240;-72
2021/06/26 04:50:09;;;;;;;;;13.75;12.50;;;;;18.98;70.07;101320.97;4923985;28;45321;-72
2021/06/26 04:52:35;;;;;;;;;13.25;12.50;;;;;18.95;70.43;101327.41;4923248;28;45460;-73
2021/06/26 04:55:02;;;;;;;;;12.50;9.25;;;;;18.96;70.14;101329.16;4923090;28;45311;-72
2021/06/26 04:57:28;;;;;;;;;11.50;11.50;;;;;18.97;70.39;101327.31;4923589;28;45339;-73
2021/06/26 04:59:53;;;;;;;;;12.75;12.75;;;;;18.99;70.38;101330.78;4923873;28;45321;-73
2021/06/26 05:02:19;;;;;;;;;12.75;12.75;;;;;19.01;70.75;101327.06;4923521;28;45532;-73
2021/06/26 05:04:44;;;;;;;;;11.25;11.25;;;;;18.98;70.46;101321.81;4923535;28;46047;-73
2021/06/26 05:07:10;;;;;;;;;12.75;12.75;;;;;19.00;70.37;101321.72;4923450;28;45413;-73
2021/06/26 05:09:35;;;;;;;;;12.25;11.25;;;;;18.99;70.31;101326.25;4923525;28;45258;-73
2021/06/26 05:12:00;;;;;;;;;13.50;12.75;;;;;18.95;70.34;101318.41;4923368;28;45366;-73
2021/06/26 05:14:26;;;;;;;;;13.25;8.50;;;;;18.98;70.20;101320.97;4923343;28;46055;-73
2021/06/26 05:16:51;;;;;;;;;16.75;14.75;;;;;18.95;70.67;101318.41;4923239;28;45334;-72
2021/06/26 05:19:16;;;;;;;;;9.25;9.25;;;;;18.95;70.43;101315.72;4923293;28;45338;-73
2021/06/26 05:21:42;;;;;;;;;11.00;9.25;;;;;18.96;70.50;101329.16;4923237;28;45382;-72
2021/06/26 05:24:07;;;;;;;;;8.75;8.75;;;;;18.96;70.74;101326.44;4923355;28;45398;-73
2021/06/26 05:26:33;;;;;;;;;6.50;6.25;;;;;18.94;70.28;101324.78;4923193;28;45359;-73
2021/06/26 05:28:58;;;;;;;;;6.50;6.50;;;;;18.93;70.35;101331.13;4923553;28;45255;-73
2021/06/26 05:31:24;;;;;;;;;5.25;5.25;;;;;18.84;70.39;101325.34;4923065;28;45325;-72
2021/06/26 05:33:49;;;;;;;;;4.00;4.00;;;;;18.90;70.40;101324.09;4924148;28;45470;-73
2021/06/26 05:36:14;;;;;;;;;5.00;5.00;;;;;18.91;70.47;101333.97;4923179;28;45550;-73
2021/06/26 05:38:40;;;;;;;;;3.50;3.50;;;;;18.88;70.20;101335.00;4923202;28;45351;-73
2021/06/26 05:41:05;;;;;;;;;4.00;3.75;;;;;18.92;70.39;101338.41;4923046;28;45230;-73
2021/06/26 05:43:31;;;;;;;;;7.25;6.50;;;;;18.92;70.44;101329.41;4922995;28;45382;-73
2021/06/26 05:45:56;;;;;;;;;5.75;4.00;;;;;18.93;70.47;101333.84;4923010;28;45421;-73
2021/06/26 05:48:21;;;;;;;;;6.00;6.00;;;;;18.89;70.61;101333.16;4927560;28;45199;-73
2021/06/26 05:50:46;;;;;;;;;6.25;5.75;;;;;18.92;70.37;101342.94;4922876;28;45250;-73
2021/06/26 05:53:12;;;;;;;;;6.00;5.00;;;;;18.86;70.54;101339.63;4923008;28;45191;-73
2021/06/26 05:55:37;;;;;;;;;5.75;4.75;;;;;18.88;70.63;101344.97;4922741;28;45212;-73
2021/06/26 05:58:04;;;;;;;;;4.75;4.75;;;;;18.85;70.16;101337.00;4922974;28;45945;-73
2021/06/26 06:00:33;;;;;;;;;3.75;3.75;;;;;18.86;70.11;101342.34;4922820;28;45369;-73
2021/06/26 06:02:59;;;;;;;;;5.00;5.00;;;;;18.86;70.49;101349.56;4922569;28;45478;-73
2021/06/26 06:05:24;;;;;;;;;4.25;4.25;;;;;18.86;70.32;101342.34;4922321;28;45247;-73
2021/06/26 06:07:49;;;;;;;;;6.00;5.75;;;;;18.83;70.44;101345.22;4922934;28;45179;-73
2021/06/26 06:10:16;;;;;;;;;5.75;4.75;;;;;18.83;70.07;101347.06;4922575;28;45339;-73
2021/06/26 06:12:42;;;;;;;;;3.50;3.00;;;;;18.82;70.11;101354.25;4922681;28;46289;-73
2021/06/26 06:15:11;;;;;;;;;5.50;5.00;;;;;18.81;70.26;101339.00;4922645;28;45180;-73
2021/06/26 06:17:37;;;;;;;;;5.00;4.25;;;;;18.86;70.73;101341.44;4922452;28;45381;-73
2021/06/26 06:20:05;;;;;;;;;4.00;4.00;;;;;18.86;70.20;101347.75;4922499;28;45313;-73
2021/06/26 06:22:31;;;;;;;;;4.25;3.25;;;;;18.83;70.08;101347.06;4922516;28;47074;-73
2021/06/26 06:24:57;;;;;;;;;4.00;4.00;;;;;18.83;70.14;101347.91;4922468;28;45300;-73
2021/06/26 06:27:22;;;;;;;;;5.00;4.00;;;;;18.79;70.62;101343.59;4922610;28;45952;-73
2021/06/26 06:29:47;;;;;;;;;5.75;5.00;;;;;18.80;69.87;101348.06;4922463;28;45408;-73
2021/06/26 06:32:13;;;;;;;;;4.50;4.50;;;;;18.82;70.41;101348.84;4922468;28;45241;-73
2021/06/26 06:34:38;;;;;;;;;6.25;4.00;;;;;18.81;70.08;101357.03;4922828;28;45232;-73
2021/06/26 06:37:04;;;;;;;;;5.75;5.75;;;;;18.78;70.39;101346.41;4922594;28;45214;-73
2021/06/26 06:39:29;;;;;;;;;5.25;5.25;;;;;18.79;70.68;101343.59;4922076;28;45460;-73
2021/06/26 06:41:54;;;;;;;;;5.25;4.75;;;;;18.77;70.15;101345.53;4922232;28;45302;-73
2021/06/26 06:44:20;;;;;;;;;3.75;3.75;;;;;18.79;70.22;101343.59;4922230;28;45335;-73
2021/06/26 06:46:45;;;;;;;;;4.50;4.50;;;;;18.78;70.30;101341.88;4922693;28;45243;-73
2021/06/26 06:49:11;;;;;;;;;5.50;5.00;;;;;18.77;70.34;101333.84;4926158;28;45536;-73
2021/06/26 06:51:36;;;;;;;;;4.50;4.50;;;;;18.80;70.31;101339.94;4921983;28;46892;-73
2021/06/26 06:54:02;;;;;;;;;4.00;4.00;;;;;18.83;70.70;101353.31;4921383;28;45408;-73
2021/06/26 06:56:28;;;;;;;;;4.25;4.25;;;;;18.84;70.33;101354.19;4922049;28;45292;-73
2021/06/26 06:58:53;;;;;;;;;6.00;5.00;;;;;18.80;70.18;101348.06;4921784;28;45349;-73
2021/06/26 07:01:20;;;;;;;;;3.25;3.25;;;;;18.83;70.24;101350.63;4921621;28;45437;-77
2021/06/26 07:03:45;;;;;;;;;5.00;5.00;;;;;18.83;70.22;101347.91;4921645;28;45309;-76
2021/06/26 07:06:10;;;;;;;;;9.75;5.75;;;;;18.87;70.85;101357.59;4921993;28;45211;-76
2021/06/26 07:08:36;;;;;;;;;5.00;5.00;;;;;18.83;70.18;101349.75;4921278;28;45461;-77
2021/06/26 07:11:01;;;;;;;;;6.00;6.00;;;;;18.88;70.49;101358.47;4920999;28;45364;-77
2021/06/26 07:13:26;;;;;;;;;6.75;6.75;;;;;18.87;70.28;101367.53;4919508;28;45400;-74
2021/06/26 07:15:52;;;;;;;;;6.25;6.25;;;;;18.85;70.41;101367.63;4921823;28;45307;-74
2021/06/26 07:18:17;;;;;;;;;6.25;6.00;;;;;18.78;70.68;101359.94;4924192;28;45308;-74
2021/06/26 07:20:42;;;;;;;;;4.00;4.00;;;;;18.80;70.68;101356.16;4923494;28;45646;-75
2021/06/26 07:23:08;;;;;;;;;5.50;5.50;;;;;18.87;70.67;101375.66;4939691;28;45879;-74
2021/06/26 07:25:33;;;;;;;;;4.75;4.75;;;;;18.81;70.56;101363.34;4924663;28;45362;-74
2021/06/26 07:27:59;;;;;;;;;5.25;4.25;;;;;18.84;70.75;101368.63;4923439;28;45368;-74
2021/06/26 07:30:24;;;;;;;;;7.00;7.00;;;;;18.83;70.76;101366.84;4924513;28;45533;-74
2021/06/26 07:32:50;;;;;;;;;7.75;6.00;;;;;18.81;70.82;101368.75;4924334;28;45551;-74
2021/06/26 07:35:16;;;;;;;;;5.25;5.25;;;;;18.79;70.47;101364.38;4925181;28;45424;-74
2021/06/26 07:37:42;;;;;;;;;5.75;4.75;;;;;18.79;70.79;101365.22;4924561;28;45327;-74
2021/06/26 07:40:09;;;;;;;;;5.25;5.25;;;;;18.79;70.68;101369.78;4924406;28;46200;-73
2021/06/26 07:42:34;;;;;;;;;8.25;6.00;;;;;18.81;71.10;101368.75;4924775;28;45534;-74
2021/06/26 07:45:00;;;;;;;;;8.25;6.00;;;;;18.82;70.96;101369.63;4925206;28;45427;-73
2021/06/26 07:47:25;;;;;;;;;7.50;6.75;;;;;18.80;70.66;101367.00;4928735;28;45475;-73
2021/06/26 07:49:51;;;;;;;;;6.00;6.00;;;;;18.81;71.12;101365.16;4923959;28;45456;-73
2021/06/26 07:52:16;;;;;;;;;7.75;7.75;;;;;18.82;70.92;101364.19;4924246;28;45293;-74
2021/06/26 07:54:41;;;;;;;;;6.75;6.75;;;;;18.87;70.72;101371.09;4924824;28;45319;-77
2021/06/26 07:57:07;;;;;;;;;6.00;6.00;;;;;18.88;70.82;101364.75;4923959;28;45274;-77
2021/06/26 07:59:32;;;;;;;;;6.00;6.00;;;;;18.86;70.65;101358.56;4924496;28;46028;-78
2021/06/26 08:01:57;;;;;;;;;7.25;7.25;;;;;18.92;70.98;101362.75;4924381;28;45752;-78
2021/06/26 08:04:23;;;;;;;;;7.00;7.00;;;;;18.93;70.79;101364.50;4922871;28;45384;-77
2021/06/26 08:06:48;;;;;;;;;8.75;8.25;;;;;18.94;71.07;101357.25;4917146;28;45844;-73
2021/06/26 08:09:14;;;;;;;;;8.75;8.75;;;;;18.96;71.10;101355.31;4920592;28;46301;-73
2021/06/26 08:11:39;;;;;;;;;7.00;7.00;;;;;18.86;71.15;101339.63;4923604;28;45462;-72
2021/06/26 08:14:04;;;;;;;;;8.50;8.50;;;;;18.94;71.25;101344.56;4922984;28;45625;-72
2021/06/26 08:16:30;;;;;;;;;11.50;11.50;;;;;19.00;71.10;101351.50;4919744;28;45971;-73
2021/06/26 08:18:55;;;;;;;;;7.25;7.25;;;;;19.01;71.05;101351.41;4910093;28;46261;-72
2021/06/26 08:21:22;;;;;;;;;10.25;8.00;;;;;19.03;71.19;101348.59;4905306;28;45473;-72
2021/06/26 08:23:49;;;;;;;;;9.25;9.25;;;;;19.04;71.34;101343.13;4914196;28;45509;-73
2021/06/26 08:26:14;;;;;;;;;8.25;8.25;;;;;19.03;71.05;101337.78;4916690;28;45512;-72
2021/06/26 08:28:40;;;;;;;;;7.50;7.50;;;;;19.03;70.59;101335.09;4904478;28;46111;-72
2021/06/26 08:31:05;;;;;;;;;8.50;7.75;;;;;19.04;71.04;101344.91;4919700;28;45474;-73
2021/06/26 08:33:30;;;;;;;;;10.50;9.00;;;;;19.03;71.37;101341.34;4930007;28;45318;-72
2021/06/26 08:35:55;;;;;;;;;7.00;7.00;;;;;19.03;70.55;101341.34;4924603;28;45507;-73
2021/06/26 08:38:21;;;;;;;;;9.00;9.00;;;;;19.01;70.93;101351.41;4923111;28;46019;-73
2021/06/26 08:40:52;;;;;;;;;8.75;8.75;;;;;19.03;71.52;101354.03;4923753;28;45255;-72
2021/06/26 08:43:18;;;;;;;;;9.75;8.00;;;;;19.04;71.01;101347.63;4921777;28;45427;-72
2021/06/26 08:45:44;;;;;;;;;9.25;9.00;;;;;19.07;71.01;101355.56;4927235;28;45535;-70
2021/06/26 08:48:09;;;;;;;;;10.75;7.50;;;;;19.04;71.55;101353.03;4921935;28;46680;-71
2021/06/26 08:50:35;;;;;;;;;10.50;10.50;;;;;19.10;71.24;101362.66;4919545;28;45492;-71
2021/06/26 08:53:00;;;;;;;;;9.25;9.25;;;;;19.11;71.14;101358.97;4925549;28;45492;-71
2021/06/26 08:55:26;;;;;;;;;10.00;8.50;;;;;19.04;70.73;101343.13;4922804;28;46398;-71
2021/06/26 08:57:52;;;;;;;;;6.75;6.75;;;;;19.11;70.87;101354.44;4928861;28;46396;-72
2021/06/26 09:00:21;;;;;;;;;8.00;7.25;;;;;19.18;71.11;101360.38;4921341;28;45394;-75
2021/06/26 09:02:47;;;;;;;;;6.75;6.75;;;;;19.18;71.05;101350.41;4921552;28;45757;-72
2021/06/26 09:05:27;;;;;;;;;10.75;10.75;;;;;19.24;70.76;101350.06;4934704;28;45500;-74
2021/06/26 09:07:52;;;;;;;;;12.25;12.25;;;;;19.26;71.12;101352.63;4909464;28;45609;-73
2021/06/26 09:10:20;;;;;;;;;10.75;9.25;;;;;19.27;71.16;101348.13;4920937;28;45640;-73
2021/06/26 09:12:47;;;;;;;;;12.00;10.00;;;;;19.30;71.16;101350.66;4921748;28;45442;-70
2021/06/26 09:15:31;;;;;;;;;8.75;8.75;;;;;19.28;71.41;101339.91;4919156;28;45582;-73
2021/06/26 09:17:56;;;;;;;;;8.25;8.00;;;;;19.32;70.57;101348.72;4913926;28;45484;-73
2021/06/26 09:20:36;;;;;;;;;7.25;7.25;;;;;19.35;70.42;101343.13;4910454;28;45354;-71
2021/06/26 09:23:04;;;;;;;;;6.00;6.00;;;;;19.37;70.07;101343.91;4916164;28;45430;-70
2021/06/26 09:25:35;;;;;;;;;5.50;5.00;;;;;19.39;70.10;101345.53;4921618;28;45532;-71
2021/06/26 09:28:08;;;;;;;;;6.75;6.75;;;;;19.43;69.86;101347.13;4920393;28;46015;-74
2021/06/26 09:30:38;;;;;;;;;8.25;8.00;;;;;19.47;69.57;101331.56;4910846;28;45463;-72
2021/06/26 09:33:21;;;;;;;;;7.00;6.25;;;;;19.49;70.21;101328.75;4923414;28;45716;-73
2021/06/26 09:35:59;;;;;;;;;9.25;8.25;;;;;19.47;69.09;101325.28;4921673;28;45528;-72
2021/06/26 09:38:25;;;;;;;;;10.00;9.50;;;;;19.50;70.04;101325.09;4921235;28;45540;-72
2021/06/26 09:40:50;;;;;;;;;9.00;8.50;;;;;19.51;69.37;101330.41;4920980;28;45414;-71
2021/06/26 09:43:34;;;;;;;;;9.00;9.00;;;;;19.51;69.74;101330.41;4921330;28;45324;-72
2021/06/26 09:46:09;;;;;;;;;9.50;9.25;;;;;19.55;69.61;101342.78;4920668;28;45760;-73
2021/06/26 09:48:46;;;;;;;;;9.50;9.50;;;;;19.59;69.95;101338.91;4927004;28;45510;-72
2021/06/26 09:51:23;;;;;;;;;12.50;12.25;;;;;19.63;69.92;101342.34;4920747;28;45342;-73
2021/06/26 09:54:09;;;;;;;;;10.50;10.50;;;;;19.66;69.25;101343.97;4921003;28;45481;-74
2021/06/26 09:56:40;;;;;;;;;9.00;8.25;;;;;19.68;69.26;101347.44;4918018;28;45477;-73
2021/06/26 09:59:06;;;;;;;;;11.50;8.50;;;;;19.66;68.88;101352.09;4916725;28;46540;-72
2021/06/26 10:01:35;;;;;;;;;9.75;8.25;;;;;19.66;69.11;101349.38;4918632;28;45560;-71
2021/06/26 10:04:01;;;;;;;;;7.75;6.25;;;;;19.65;69.12;101350.38;4920103;28;45581;-71
2021/06/26 10:06:28;;;;;;;;;10.75;10.75;;;;;19.69;68.21;101360.03;4921727;28;45651;-70
2021/06/26 10:08:53;;;;;;;;;10.50;9.00;;;;;19.67;67.64;101356.56;4920390;28;46196;-71
2021/06/26 10:11:19;;;;;;;;;9.75;8.50;;;;;19.62;67.96;101354.97;4921964;28;45404;-71
2021/06/26 10:13:45;;;;;;;;;7.00;7.00;;;;;19.64;67.88;101346.75;4922141;28;45495;-70
2021/06/26 10:16:11;;;;;;;;;7.75;7.25;;;;;19.70;68.33;101356.38;4917342;28;45376;-72
2021/06/26 10:18:39;;;;;;;;;11.00;8.50;;;;;19.70;68.42;101351.81;4919668;28;45489;-72
2021/06/26 10:21:05;;;;;;;;;10.75;10.75;;;;;19.75;68.69;101349.72;4921048;28;45315;-72
2021/06/26 10:23:32;;;;;;;;;13.25;10.50;;;;;19.77;68.56;101352.34;4921499;28;45655;-72
2021/06/26 10:25:59;;;;;;;;;12.00;10.75;;;;;19.74;68.32;101338.94;4921167;28;45381;-72
2021/06/26 10:28:25;;;;;;;;;10.25;9.00;;;;;19.79;68.54;101345.84;4928018;28;46514;-71
2021/06/26 10:31:06;;;;;;;;;10.00;10.00;;;;;19.82;67.66;101349.34;4921205;28;45394;-71
2021/06/26 10:33:32;;;;;;;;;11.25;8.50;;;;;19.84;67.39;101345.56;4927264;28;45469;-72
2021/06/26 10:36:00;;;;;;;;;11.25;11.25;;;;;19.86;67.58;101346.34;4921310;28;45613;-71
2021/06/26 10:38:26;;;;;;;;;11.00;9.75;;;;;19.87;66.88;101347.25;4920899;28;46296;-71
2021/06/26 10:40:55;;;;;;;;;11.50;9.50;;;;;19.88;67.21;101343.53;4921009;28;45477;-71
2021/06/26 10:43:25;;;;;;;;;12.00;9.50;;;;;19.90;66.79;101352.47;4921306;28;45334;-71
2021/06/26 10:46:10;;;;;;;;;12.75;7.25;;;;;19.89;66.54;101340.75;4921309;28;45399;-71
2021/06/26 10:48:38;;;;;;;;;14.75;13.75;;;;;19.88;66.95;101341.72;4931415;28;45486;-71
2021/06/26 10:51:04;;;;;;;;;8.50;8.50;;;;;19.90;67.39;101338.94;4921220;28;45687;-71
2021/06/26 10:53:35;;;;;;;;;9.00;8.25;;;;;19.93;67.54;101342.31;4924758;28;45390;-72
2021/06/26 10:56:14;;;;;;;;;8.00;8.00;;;;;19.94;67.34;101340.47;4924603;28;45780;-71
2021/06/26 10:58:44;;;;;;;;;11.25;11.00;;;;;19.97;66.11;101341.13;4924306;28;45566;-71
2021/06/26 11:01:19;;;;;;;;;11.25;11.25;;;;;19.98;66.03;101334.75;4924856;28;45361;-71
2021/06/26 11:03:46;;;;;;;;;11.25;10.50;;;;;20.01;66.24;101338.25;4925275;28;45474;-72
2021/06/26 11:06:26;;;;;;;;;9.50;9.50;;;;;20.01;66.64;101338.25;4923953;28;45431;-72
2021/06/26 11:09:09;;;;;;;;;12.25;11.50;;;;;20.01;66.71;101324.69;4925068;28;46092;-71
2021/06/26 11:11:36;;;;;;;;;9.75;9.25;;;;;20.11;66.88;101331.28;4925479;28;45565;-71
2021/06/26 11:14:07;;;;;;;;;11.75;11.75;;;;;20.14;67.20;101331.06;4925653;28;45358;-71
2021/06/26 11:16:32;;;;;;;;;14.00;13.25;;;;;20.11;66.28;101320.44;4925139;28;45396;-71